createdAt,value
2018-02-15T00:01:31.054Z,22.73
2018-02-15T00:03:58.524Z,21.47
2018-02-15T00:06:26.016Z,20.47
2018-02-15T00:08:53.472Z,21.63
2018-02-15T00:11:21.093Z,21.97
2018-02-15T00:13:48.592Z,21.03
2018-02-15T00:16:16.054Z,24.50
2018-02-15T00:18:43.523Z,21.77
2018-02-15T00:21:11.032Z,20.53
2018-02-15T00:23:38.475Z,22.33
2018-02-15T00:26:05.980Z,21.83
2018-02-15T00:28:33.463Z,26.70
2018-02-15T00:31:00.952Z,21.13
2018-02-15T00:33:28.429Z,20.07
2018-02-15T00:35:55.930Z,24.27
2018-02-15T00:38:23.466Z,21.63
2018-02-15T00:40:50.988Z,21.27
2018-02-15T00:43:18.432Z,21.75
2018-02-15T00:45:45.949Z,22.83
2018-02-15T00:48:13.424Z,22.65
2018-02-15T00:50:41.068Z,22.97
2018-02-15T00:53:08.580Z,22.83
2018-02-15T00:55:36.050Z,21.00
2018-02-15T00:58:03.488Z,21.20
2018-02-15T01:00:32.740Z,21.00
2018-02-15T01:03:00.192Z,20.47
2018-02-15T01:05:27.655Z,20.97
2018-02-15T01:07:55.105Z,21.57
2018-02-15T01:10:22.591Z,20.90
2018-02-15T01:12:50.046Z,21.63
2018-02-15T01:15:17.503Z,21.10
2018-02-15T01:17:44.961Z,20.37
2018-02-15T01:20:12.504Z,20.45
2018-02-15T01:22:39.962Z,19.87
2018-02-15T01:25:07.410Z,19.90
2018-02-15T01:27:35.818Z,20.85
2018-02-15T01:30:03.259Z,19.57
2018-02-15T01:32:30.705Z,19.67
2018-02-15T01:34:58.133Z,20.97
2018-02-15T01:37:25.622Z,19.70
2018-02-15T01:39:53.074Z,19.97
2018-02-15T01:42:20.820Z,21.67
2018-02-15T01:44:48.250Z,19.77
2018-02-15T01:47:15.796Z,20.40
2018-02-15T01:49:55.061Z,17.83
2018-02-15T01:52:22.683Z,20.70
2018-02-15T01:54:50.232Z,19.85
2018-02-15T01:57:17.688Z,20.60
2018-02-15T01:59:45.144Z,22.40
2018-02-15T02:02:12.590Z,20.23
2018-02-15T02:04:40.056Z,18.50
2018-02-15T02:07:07.527Z,19.60
2018-02-15T02:09:36.114Z,21.02
2018-02-15T02:12:14.442Z,21.37
2018-02-15T02:14:55.617Z,18.98
2018-02-15T02:17:23.354Z,18.62
2018-02-15T02:19:50.916Z,17.80
2018-02-15T02:22:18.524Z,19.40
2018-02-15T02:24:47.160Z,21.60
2018-02-15T02:27:14.613Z,18.58
2018-02-15T02:29:42.111Z,19.80
2018-02-15T02:32:09.675Z,20.80
2018-02-15T02:34:37.131Z,20.47
2018-02-15T02:37:04.586Z,18.60
2018-02-15T02:39:32.138Z,19.33
2018-02-15T02:41:59.569Z,19.93
2018-02-15T02:44:27.025Z,19.80
2018-02-15T02:46:54.549Z,21.03
2018-02-15T02:49:22.062Z,17.65
2018-02-15T02:51:49.543Z,17.95
2018-02-15T02:54:16.983Z,16.80
2018-02-15T02:56:44.428Z,16.50
2018-02-15T02:59:11.977Z,15.53
2018-02-15T03:01:39.434Z,15.83
2018-02-15T03:04:06.897Z,19.30
2018-02-15T03:06:34.356Z,17.77
2018-02-15T03:09:01.808Z,16.77
2018-02-15T03:11:29.305Z,16.43
2018-02-15T03:13:56.928Z,15.17
2018-02-15T03:16:24.405Z,17.83
2018-02-15T03:18:51.942Z,14.73
2018-02-15T03:21:19.404Z,15.80
2018-02-15T03:23:46.860Z,16.87
2018-02-15T03:26:14.296Z,18.00
2018-02-15T03:28:41.768Z,15.33
2018-02-15T03:31:09.219Z,15.57
2018-02-15T03:33:36.675Z,17.40
2018-02-15T03:36:04.111Z,15.75
2018-02-15T03:38:31.585Z,15.53
2018-02-15T03:40:59.116Z,14.93
2018-02-15T03:43:26.628Z,14.80
2018-02-15T03:48:27.306Z,14.23
2018-02-15T03:50:54.741Z,14.43
2018-02-15T03:53:22.269Z,14.37
2018-02-15T03:55:49.732Z,14.67
2018-02-15T03:58:17.269Z,14.90
2018-02-15T04:00:44.780Z,15.47
2018-02-15T04:03:12.216Z,16.35
2018-02-15T04:05:39.686Z,14.73
2018-02-15T04:08:07.132Z,13.83
2018-02-15T04:10:34.605Z,16.30
2018-02-15T04:13:02.450Z,17.67
2018-02-15T04:15:29.901Z,18.07
2018-02-15T04:17:57.429Z,21.30
2018-02-15T04:20:24.869Z,17.50
2018-02-15T04:22:52.404Z,18.15
2018-02-15T04:25:19.861Z,18.55
2018-02-15T04:27:47.328Z,19.37
2018-02-15T04:30:14.772Z,20.50
2018-02-15T04:32:42.242Z,17.93
2018-02-15T04:35:09.684Z,17.50
2018-02-15T04:37:37.171Z,19.40
2018-02-15T04:40:04.623Z,17.30
2018-02-15T04:42:32.120Z,17.87
2018-02-15T04:44:59.632Z,19.00
2018-02-15T04:47:27.073Z,15.80
2018-02-15T04:49:54.501Z,19.23
2018-02-15T04:52:21.945Z,17.70
2018-02-15T04:54:49.399Z,17.73
2018-02-15T04:57:16.852Z,17.07
2018-02-15T04:59:44.304Z,17.13
2018-02-15T05:02:12.236Z,16.17
2018-02-15T05:04:40.102Z,16.13
2018-02-15T05:07:07.576Z,16.80
2018-02-15T05:09:35.038Z,16.70
2018-02-15T05:12:02.511Z,15.83
2018-02-15T05:14:29.951Z,14.17
2018-02-15T05:16:57.421Z,17.70
2018-02-15T05:19:24.860Z,14.80
2018-02-15T05:21:52.304Z,15.03
2018-02-15T05:24:19.745Z,14.70
2018-02-15T05:26:47.180Z,15.57
2018-02-15T05:29:14.613Z,15.07
2018-02-15T05:31:42.093Z,13.20
2018-02-15T05:34:09.609Z,14.20
2018-02-15T05:36:37.132Z,14.53
2018-02-15T05:39:04.604Z,12.60
2018-02-15T05:41:32.065Z,14.47
2018-02-15T05:43:59.551Z,14.83
2018-02-15T05:46:27.014Z,13.53
2018-02-15T05:48:54.457Z,13.07
2018-02-15T05:51:21.908Z,14.07
2018-02-15T05:53:49.373Z,13.37
2018-02-15T05:56:16.984Z,14.60
2018-02-15T05:58:44.417Z,13.90
2018-02-15T06:01:11.896Z,15.75
2018-02-15T06:03:39.338Z,13.53
2018-02-15T06:06:06.983Z,13.18
2018-02-15T06:08:34.416Z,14.33
2018-02-15T06:11:01.890Z,12.55
2018-02-15T06:13:29.376Z,12.43
2018-02-15T06:15:56.864Z,14.17
2018-02-15T06:18:24.310Z,11.77
2018-02-15T06:20:51.828Z,12.50
2018-02-15T06:23:19.266Z,13.70
2018-02-15T06:25:46.766Z,13.07
2018-02-15T06:28:14.199Z,12.23
2018-02-15T06:30:41.757Z,12.23
2018-02-15T06:33:09.180Z,13.03
2018-02-15T06:35:37.309Z,12.45
2018-02-15T06:38:04.743Z,11.83
2018-02-15T06:40:32.189Z,12.30
2018-02-15T06:42:59.625Z,14.07
2018-02-15T06:45:27.068Z,14.10
2018-02-15T06:47:54.503Z,11.95
2018-02-15T06:50:21.941Z,13.02
2018-02-15T06:52:49.381Z,16.75
2018-02-15T06:55:16.846Z,13.70
2018-02-15T06:57:44.297Z,11.00
2018-02-15T07:00:11.762Z,11.10
2018-02-15T07:02:39.228Z,10.00
2018-02-15T07:05:07.236Z,12.07
2018-02-15T07:07:34.690Z,11.80
2018-02-15T07:10:02.122Z,10.23
2018-02-15T07:12:29.584Z,11.93
2018-02-15T07:14:57.134Z,10.50
2018-02-15T07:17:24.688Z,11.63
2018-02-15T07:19:52.158Z,10.52
2018-02-15T07:22:19.710Z,10.57
2018-02-15T07:24:47.147Z,11.82
2018-02-15T07:27:14.608Z,11.35
2018-02-15T07:29:42.079Z,12.40
2018-02-15T07:32:09.564Z,10.87
2018-02-15T07:34:37.468Z,11.90
2018-02-15T07:37:04.914Z,13.20
2018-02-15T07:39:32.407Z,11.20
2018-02-15T07:41:59.900Z,12.47
2018-02-15T07:44:27.772Z,12.90
2018-02-15T07:46:55.306Z,12.63
2018-02-15T07:49:22.740Z,11.80
2018-02-15T07:51:50.208Z,10.17
2018-02-15T07:54:17.815Z,9.73
2018-02-15T07:56:45.196Z,12.07
2018-02-15T07:59:12.698Z,10.67
2018-02-15T08:01:40.174Z,10.37
2018-02-15T08:04:07.609Z,10.03
2018-02-15T08:06:35.176Z,11.57
2018-02-15T08:09:02.679Z,10.30
2018-02-15T08:11:30.126Z,9.83
2018-02-15T08:13:57.730Z,9.83
2018-02-15T08:16:25.164Z,12.93
2018-02-15T08:18:52.646Z,10.50
2018-02-15T08:21:20.137Z,11.23
2018-02-15T08:23:47.590Z,11.50
2018-02-15T08:26:15.040Z,11.13
2018-02-15T08:28:42.481Z,15.20
2018-02-15T08:31:09.922Z,16.03
2018-02-15T08:33:37.725Z,10.95
2018-02-15T08:36:05.196Z,16.60
2018-02-15T08:38:32.716Z,12.53
2018-02-15T08:41:00.212Z,14.13
2018-02-15T08:43:27.665Z,12.48
2018-02-15T08:45:55.116Z,11.33
2018-02-15T08:48:22.587Z,11.07
2018-02-15T08:50:50.032Z,12.97
2018-02-15T08:53:17.528Z,22.65
2018-02-15T08:55:45.001Z,18.67
2018-02-15T08:58:12.468Z,13.90
2018-02-15T09:00:39.938Z,13.30
2018-02-15T09:03:07.862Z,12.48
2018-02-15T09:05:35.281Z,10.90
2018-02-15T09:08:02.724Z,11.30
2018-02-15T09:10:30.181Z,11.20
2018-02-15T09:12:57.668Z,11.82
2018-02-15T09:15:26.045Z,10.40
2018-02-15T09:17:53.530Z,11.50
2018-02-15T09:20:20.977Z,11.43
2018-02-15T09:22:48.488Z,10.13
2018-02-15T09:25:15.964Z,10.70
2018-02-15T09:27:43.409Z,10.87
2018-02-15T09:30:10.897Z,10.87
2018-02-15T09:32:39.056Z,9.47
2018-02-15T09:35:06.506Z,10.20
2018-02-15T09:37:33.961Z,12.02
2018-02-15T09:40:01.405Z,11.80
2018-02-15T09:42:28.846Z,10.25
2018-02-15T09:44:56.400Z,11.73
2018-02-15T09:47:23.894Z,11.55
2018-02-15T09:49:51.380Z,16.42
2018-02-15T09:52:18.853Z,11.90
2018-02-15T09:54:46.289Z,13.00
2018-02-15T09:57:13.751Z,10.07
2018-02-15T09:59:41.220Z,12.73
2018-02-15T10:02:08.640Z,10.40
2018-02-15T10:04:36.080Z,9.77
2018-02-15T10:07:03.530Z,10.63
2018-02-15T10:09:30.978Z,11.30
2018-02-15T10:11:58.476Z,10.27
2018-02-15T10:14:25.964Z,10.77
2018-02-15T10:16:53.582Z,10.33
2018-02-15T10:19:21.056Z,10.93
2018-02-15T10:21:48.490Z,10.60
2018-02-15T10:24:16.780Z,10.30
2018-02-15T10:26:44.404Z,10.23
2018-02-15T10:29:11.849Z,11.43
2018-02-15T10:31:39.297Z,11.27
2018-02-15T10:34:06.886Z,11.13
2018-02-15T10:36:34.413Z,14.70
2018-02-15T10:39:01.851Z,11.60
2018-02-15T10:41:29.364Z,10.30
2018-02-15T10:43:56.801Z,12.67
2018-02-15T10:46:24.272Z,14.23
2018-02-15T10:48:51.715Z,11.98
2018-02-15T10:51:19.210Z,13.55
2018-02-15T10:53:46.665Z,15.37
2018-02-15T10:56:14.104Z,16.90
2018-02-15T10:58:41.689Z,14.50
2018-02-15T11:01:14.941Z,14.80
2018-02-15T11:03:43.221Z,16.87
2018-02-15T11:06:10.666Z,16.27
2018-02-15T11:08:38.252Z,17.87
2018-02-15T11:11:05.755Z,18.37
2018-02-15T11:13:33.275Z,20.83
2018-02-15T11:16:00.752Z,15.33
2018-02-15T11:18:28.217Z,18.20
2018-02-15T11:20:55.645Z,16.30
2018-02-15T11:23:23.161Z,15.40
2018-02-15T11:25:50.635Z,16.70
2018-02-15T11:28:18.077Z,16.58
2018-02-15T11:30:45.781Z,17.10
2018-02-15T11:33:13.220Z,17.33
2018-02-15T11:35:40.745Z,15.80
2018-02-15T11:38:08.436Z,16.42
2018-02-15T11:40:35.914Z,18.93
2018-02-15T11:43:03.390Z,16.53
2018-02-15T11:45:30.849Z,20.73
2018-02-15T11:47:58.285Z,17.53
2018-02-15T11:50:25.750Z,18.67
2018-02-15T11:52:53.200Z,18.13
2018-02-15T11:55:20.717Z,17.60
2018-02-15T11:57:48.157Z,15.90
2018-02-15T12:00:15.637Z,16.70
2018-02-15T12:02:43.140Z,17.50
2018-02-15T12:05:10.634Z,19.30
2018-02-15T12:07:38.548Z,19.23
2018-02-15T12:10:06.272Z,17.07
2018-02-15T12:12:34.644Z,15.93
2018-02-15T12:15:02.113Z,17.10
2018-02-15T12:17:29.621Z,16.53
2018-02-15T12:19:57.072Z,17.03
2018-02-15T12:22:24.561Z,17.17
2018-02-15T12:24:52.041Z,18.80
2018-02-15T12:27:19.680Z,18.40
2018-02-15T12:29:47.149Z,16.60
2018-02-15T12:32:14.592Z,29.87
2018-02-15T12:34:42.045Z,19.37
2018-02-15T12:37:09.641Z,18.55
2018-02-15T12:39:37.065Z,20.53
2018-02-15T12:42:04.538Z,21.83
2018-02-15T12:44:31.980Z,20.77
2018-02-15T12:46:59.458Z,20.00
2018-02-15T12:49:26.920Z,18.07
2018-02-15T12:51:54.743Z,19.95
2018-02-15T12:54:22.342Z,18.50
2018-02-15T12:56:49.967Z,19.55
2018-02-15T12:59:17.451Z,23.40
2018-02-15T13:01:44.918Z,24.80
2018-02-15T13:04:12.449Z,17.97
2018-02-15T13:06:39.955Z,19.70
2018-02-15T13:09:07.559Z,21.80
2018-02-15T13:11:35.034Z,48.40
2018-02-15T13:14:02.496Z,30.80
2018-02-15T13:16:41.628Z,22.63
2018-02-15T13:19:20.862Z,18.60
2018-02-15T13:21:48.314Z,21.37
2018-02-15T13:24:15.806Z,18.00
2018-02-15T13:26:43.544Z,19.07
2018-02-15T13:29:11.154Z,17.93
2018-02-15T13:31:39.169Z,17.07
2018-02-15T13:34:06.614Z,19.40
2018-02-15T13:36:34.073Z,37.30
2018-02-15T13:39:01.568Z,24.47
2018-02-15T13:41:29.045Z,18.63
2018-02-15T13:43:56.532Z,21.83
2018-02-15T13:46:23.993Z,18.98
2018-02-15T13:48:51.433Z,19.07
2018-02-15T13:51:18.905Z,17.23
2018-02-15T13:53:46.356Z,16.70
2018-02-15T13:56:13.817Z,15.68
2018-02-15T13:58:41.305Z,13.73
2018-02-15T14:01:09.072Z,13.10
2018-02-15T14:03:36.552Z,14.60
2018-02-15T14:06:04.033Z,14.02
2018-02-15T14:08:31.469Z,13.73
2018-02-15T14:10:58.916Z,14.45
2018-02-15T14:13:26.449Z,14.07
2018-02-15T14:15:53.918Z,15.23
2018-02-15T14:18:21.408Z,15.77
2018-02-15T14:20:48.860Z,14.13
2018-02-15T14:23:16.308Z,13.93
2018-02-15T14:25:43.745Z,14.00
2018-02-15T14:28:11.198Z,15.37
2018-02-15T14:30:39.468Z,16.50
2018-02-15T14:33:07.009Z,16.47
2018-02-15T14:35:34.484Z,17.10
2018-02-15T14:38:01.936Z,15.30
2018-02-15T14:40:29.372Z,18.40
2018-02-15T14:42:56.892Z,17.73
2018-02-15T14:45:24.391Z,17.83
2018-02-15T14:47:51.865Z,17.73
2018-02-15T14:50:19.309Z,16.15
2018-02-15T14:52:46.742Z,16.40
2018-02-15T14:55:14.384Z,18.70
2018-02-15T14:57:41.885Z,18.93
2018-02-15T15:00:09.346Z,18.90
2018-02-15T15:02:37.042Z,19.43
2018-02-15T15:05:04.492Z,19.03
2018-02-15T15:07:31.922Z,20.20
2018-02-15T15:09:59.414Z,20.50
2018-02-15T15:12:26.848Z,19.83
2018-02-15T15:14:54.304Z,21.13
2018-02-15T15:17:21.742Z,22.85
2018-02-15T15:19:49.199Z,22.92
2018-02-15T15:22:16.704Z,22.67
2018-02-15T15:24:44.275Z,21.10
2018-02-15T15:27:11.699Z,21.40
2018-02-15T15:29:39.154Z,24.90
2018-02-15T15:32:06.627Z,23.60
2018-02-15T15:34:34.074Z,23.43
2018-02-15T15:37:01.598Z,24.43
2018-02-15T15:39:29.054Z,22.20
2018-02-15T15:41:56.577Z,23.20
2018-02-15T15:44:24.016Z,23.10
2018-02-15T15:46:51.480Z,25.70
2018-02-15T15:49:18.916Z,26.10
2018-02-15T15:51:46.384Z,24.90
2018-02-15T15:54:13.833Z,24.40
2018-02-15T15:56:41.364Z,27.25
2018-02-15T15:59:10.662Z,28.28
2018-02-15T16:01:38.221Z,24.03
2018-02-15T16:04:05.674Z,27.03
2018-02-15T16:06:33.139Z,33.17
2018-02-15T16:09:00.646Z,25.83
2018-02-15T16:11:28.220Z,26.83
2018-02-15T16:13:55.667Z,25.20
2018-02-15T16:16:23.184Z,28.20
2018-02-15T16:18:50.701Z,27.47
2018-02-15T16:21:18.254Z,27.97
2018-02-15T16:23:45.840Z,24.73
2018-02-15T16:26:13.327Z,27.37
2018-02-15T16:28:40.806Z,28.90
2018-02-15T16:31:08.313Z,30.10
2018-02-15T16:33:35.829Z,29.27
2018-02-15T16:36:03.349Z,29.00
2018-02-15T16:38:30.974Z,30.00
2018-02-15T16:40:59.320Z,33.87
2018-02-15T16:43:26.814Z,31.77
2018-02-15T16:45:54.261Z,31.60
2018-02-15T16:48:21.770Z,29.40
2018-02-15T16:50:49.199Z,28.77
2018-02-15T16:53:16.653Z,31.12
2018-02-15T16:55:44.108Z,30.40
2018-02-15T16:58:11.592Z,32.47
2018-02-15T17:00:39.831Z,31.50
2018-02-15T17:03:07.276Z,30.67
2018-02-15T17:05:34.854Z,31.87
2018-02-15T17:08:02.325Z,32.87
2018-02-15T17:10:29.752Z,38.43
2018-02-15T17:12:57.203Z,32.80
2018-02-15T17:15:24.636Z,35.53
2018-02-15T17:17:52.084Z,33.33
2018-02-15T17:20:19.518Z,33.07
2018-02-15T17:22:47.082Z,34.37
2018-02-15T17:25:14.528Z,36.42
2018-02-15T17:27:42.017Z,37.23
2018-02-15T17:30:09.909Z,39.83
2018-02-15T17:32:37.506Z,36.00
2018-02-15T17:35:04.969Z,35.23
2018-02-15T17:37:32.413Z,38.47
2018-02-15T17:39:59.868Z,54.93
2018-02-15T17:42:30.889Z,39.30
2018-02-15T17:44:58.409Z,37.27
2018-02-15T17:47:25.844Z,38.70
2018-02-15T17:49:53.285Z,38.83
2018-02-15T17:52:20.713Z,39.63
2018-02-15T17:54:48.278Z,37.03
2018-02-15T17:57:15.893Z,36.20
2018-02-15T17:59:43.392Z,34.27
2018-02-15T18:02:11.170Z,42.00
2018-02-15T18:04:38.623Z,39.33
2018-02-15T18:07:06.092Z,45.47
2018-02-15T18:09:33.701Z,49.57
2018-02-15T18:12:01.209Z,37.80
2018-02-15T18:14:28.645Z,45.73
2018-02-15T18:16:56.331Z,45.23
2018-02-15T18:19:23.820Z,41.17
2018-02-15T18:21:51.274Z,36.33
2018-02-15T18:24:18.741Z,36.75
2018-02-15T18:26:46.210Z,38.70
2018-02-15T18:29:13.745Z,36.77
2018-02-15T18:31:41.253Z,38.97
2018-02-15T18:34:08.677Z,35.57
2018-02-15T18:36:36.125Z,34.60
2018-02-15T18:39:03.560Z,35.57
2018-02-15T18:41:31.107Z,31.60
2018-02-15T18:43:58.686Z,31.43
2018-02-15T18:46:26.120Z,32.58
2018-02-15T18:48:53.582Z,34.20
2018-02-15T18:51:21.066Z,35.55
2018-02-15T18:53:48.488Z,31.20
2018-02-15T18:56:15.925Z,31.33
2018-02-15T18:58:43.384Z,34.63
2018-02-15T19:01:10.834Z,37.47
2018-02-15T19:03:38.422Z,35.57
2018-02-15T19:06:06.189Z,35.73
2018-02-15T19:08:33.665Z,38.47
2018-02-15T19:11:01.113Z,32.70
2018-02-15T19:13:28.589Z,48.53
2018-02-15T19:15:56.034Z,39.57
2018-02-15T19:18:23.669Z,34.63
2018-02-15T19:20:51.106Z,39.70
2018-02-15T19:23:18.950Z,36.83
2018-02-15T19:25:46.390Z,33.70
2018-02-15T19:28:13.851Z,35.77
2018-02-15T19:30:41.332Z,33.23
2018-02-15T19:33:08.767Z,33.63
2018-02-15T19:35:36.318Z,34.60
2018-02-15T19:38:03.767Z,34.00
2018-02-15T19:40:31.449Z,34.40
2018-02-15T19:42:58.920Z,31.57
2018-02-15T19:45:26.406Z,34.53
2018-02-15T19:47:53.965Z,38.70
2018-02-15T19:50:21.397Z,34.53
2018-02-15T19:52:48.853Z,34.07
2018-02-15T19:55:16.298Z,34.50
2018-02-15T19:57:43.785Z,37.17
2018-02-15T20:00:11.242Z,33.90
2018-02-15T20:02:39.579Z,31.57
2018-02-15T20:05:07.012Z,35.67
2018-02-15T20:07:34.464Z,34.05
2018-02-15T20:10:02.446Z,35.70
2018-02-15T20:12:29.920Z,33.40
2018-02-15T20:14:57.345Z,35.47
2018-02-15T20:17:25.096Z,34.67
2018-02-15T20:19:57.986Z,36.97
2018-02-15T20:22:25.734Z,36.67
2018-02-15T20:24:53.181Z,39.87
2018-02-15T20:27:26.110Z,33.47
2018-02-15T20:29:53.788Z,37.45
2018-02-15T20:32:21.382Z,34.30
2018-02-15T20:34:48.841Z,35.22
2018-02-15T20:37:16.521Z,33.67
2018-02-15T20:39:49.586Z,35.50
2018-02-15T20:42:17.017Z,36.37
2018-02-15T20:44:44.448Z,34.53
2018-02-15T20:47:12.448Z,33.30
2018-02-15T20:49:46.541Z,33.72
2018-02-15T20:52:19.795Z,34.43
2018-02-15T21:08:07.948Z,35.20
2018-02-15T21:10:35.601Z,47.20
2018-02-15T21:13:03.046Z,37.63
2018-02-15T21:15:30.472Z,39.87
2018-02-15T21:17:58.787Z,37.60
2018-02-15T21:20:26.242Z,41.90
2018-02-15T21:22:53.895Z,40.43
2018-02-15T21:25:21.538Z,41.07
2018-02-15T21:27:48.997Z,42.80
2018-02-15T21:30:16.430Z,38.80
2018-02-15T21:32:43.920Z,44.40
2018-02-15T21:35:11.394Z,42.00
2018-02-15T21:37:38.833Z,38.07
2018-02-15T21:40:06.287Z,39.87
2018-02-15T21:42:33.745Z,37.30
2018-02-15T21:45:01.223Z,35.03
2018-02-15T21:47:28.684Z,37.53
2018-02-15T21:49:56.140Z,40.17
2018-02-15T21:52:23.576Z,35.80
2018-02-15T21:54:52.768Z,36.58
2018-02-15T21:57:20.269Z,35.77
2018-02-15T21:59:47.742Z,38.23
2018-02-15T22:02:15.184Z,37.25
2018-02-15T22:04:42.648Z,41.17
2018-02-15T22:20:14.913Z,41.27
2018-02-15T22:22:42.526Z,43.80
2018-02-15T22:25:10.946Z,41.70
2018-02-15T22:27:38.390Z,36.77
2018-02-15T22:30:06.027Z,49.60
2018-02-15T22:32:33.574Z,36.43
2018-02-15T22:35:01.229Z,38.47
2018-02-15T22:37:28.784Z,56.30
2018-02-15T22:39:56.259Z,39.05
2018-02-15T22:42:23.881Z,39.72
2018-02-15T22:44:51.339Z,39.60
2018-02-15T22:47:18.852Z,47.07
2018-02-15T22:49:46.600Z,46.90
2018-02-15T22:52:15.155Z,74.57
2018-02-15T22:54:42.677Z,46.37
2018-02-15T22:57:11.228Z,44.90
2018-02-15T22:59:38.662Z,48.30
2018-02-15T23:02:06.092Z,43.92
2018-02-15T23:04:33.558Z,47.50
2018-02-15T23:07:00.977Z,40.93
2018-02-15T23:09:28.441Z,40.05
2018-02-15T23:11:55.879Z,48.23
2018-02-15T23:14:23.398Z,40.27
2018-02-15T23:16:50.958Z,45.83
2018-02-15T23:19:18.454Z,43.93
2018-02-15T23:21:45.900Z,41.80
2018-02-15T23:24:13.367Z,44.23
2018-02-15T23:26:41.433Z,55.60
2018-02-15T23:29:08.990Z,48.10
2018-02-15T23:31:36.550Z,72.00
2018-02-15T23:34:04.018Z,75.20
2018-02-15T23:36:31.441Z,67.37
2018-02-15T23:38:58.875Z,81.33
2018-02-15T23:41:26.528Z,77.17
2018-02-15T23:43:54.322Z,68.67
2018-02-15T23:46:21.874Z,55.65
2018-02-15T23:48:49.314Z,48.23
2018-02-15T23:51:16.878Z,43.87
2018-02-15T23:53:44.354Z,52.47
2018-02-15T23:56:13.533Z,44.83
2018-02-15T23:58:41.593Z,46.30
